Chobham, United Kingdom
Current Conditions -  °F | °C
As of 8:50 PM on Monday 26 Jan 2015 (Local Time) from EGLF Reporting Station
Few Clouds Few Clouds  
Wind Chill: 36°   Ceiling: Unl
Heat Index: 41°   Visibility: 6mi
Dew Point: 36°   Wind: 7mph
Humidity: 81%   Direction: 290°WNW
Pressure: 30.36"   Gusts: NA
Location:  51.35°N, 0.6°W
Report Text: EGLF 262050Z 29006KT 9999 FEW040 05/02 Q1028
Loading
Personal Weather Stations






























Interactive Weather Map New forecast layout! Learn more

10-Day Weather Forecast

Advertisements
Track Severe Weather on mobile